ASA1461 KSEA-KJAC
Flight info
| Callsign | ASA1461 |
|---|---|
| Flight time | N/A |
| Altitude | 35000 |
| Route | MONTN2 SEA NORMY MODDA STEVS WAIDE PETTZ TOCUD DNW JAC |
| Aircraft | B738/M-SDE2E3FGHIRWXY/LB1 |
Departure
| Time | 2026-05-08 05:56 |
|---|---|
| Airport | Seattle–Tacoma International Airport (KSEA) |
Arrival
| Time | N/A |
|---|---|
| Airport | Jackson Hole Airport (KJAC) |
| Time | Latitude | Longitude | Altitude | Speed | Heading |
|---|---|---|---|---|---|
| 2026-05-08 05:32 | 52.37272 | 13.52373 | 166 ft | 0 kts | 70° |
| 2026-05-08 05:33 | 47.44893 | -122.30448 | 407 ft | 0 kts | 88° |
| 2026-05-08 05:48 | 47.44893 | -122.30464 | 407 ft | 2 kts | 88° |
| 2026-05-08 05:48 | 47.44892 | -122.30486 | 407 ft | 2 kts | 87° |
| 2026-05-08 05:48 | 47.44892 | -122.30508 | 406 ft | 2 kts | 88° |
| 2026-05-08 05:49 | 47.44891 | -122.30530 | 406 ft | 2 kts | 87° |
| 2026-05-08 05:49 | 47.44890 | -122.30551 | 406 ft | 2 kts | 88° |
| 2026-05-08 05:49 | 47.44890 | -122.30573 | 405 ft | 2 kts | 87° |
| 2026-05-08 05:49 | 47.44889 | -122.30596 | 405 ft | 2 kts | 88° |
| 2026-05-08 05:50 | 47.44889 | -122.30610 | 405 ft | 2 kts | 88° |
| 2026-05-08 05:50 | 47.44882 | -122.30627 | 405 ft | 2 kts | 26° |
| 2026-05-08 05:50 | 47.44874 | -122.30630 | 405 ft | 1 kts | 352° |
| 2026-05-08 05:50 | 47.44869 | -122.30629 | 405 ft | 0 kts | 359° |
| 2026-05-08 05:52 | 47.44868 | -122.30629 | 405 ft | 0 kts | 359° |
| 2026-05-08 05:52 | 47.44867 | -122.30629 | 404 ft | 0 kts | 359° |
| 2026-05-08 05:53 | 47.44868 | -122.30629 | 405 ft | 1 kts | 359° |
| 2026-05-08 05:53 | 47.44904 | -122.30628 | 406 ft | 9 kts | 1° |
| 2026-05-08 05:53 | 47.45003 | -122.30625 | 411 ft | 17 kts | 1° |
| 2026-05-08 05:53 | 47.45144 | -122.30624 | 419 ft | 22 kts | 1° |
| 2026-05-08 05:54 | 47.45317 | -122.30623 | 426 ft | 26 kts | 0° |
| 2026-05-08 05:54 | 47.45523 | -122.30620 | 435 ft | 31 kts | 1° |
| 2026-05-08 05:54 | 47.45766 | -122.30617 | 440 ft | 39 kts | 0° |
| 2026-05-08 05:54 | 47.46015 | -122.30615 | 442 ft | 32 kts | 1° |
| 2026-05-08 05:55 | 47.46228 | -122.30613 | 431 ft | 29 kts | 1° |
| 2026-05-08 05:55 | 47.46370 | -122.30651 | 417 ft | 16 kts | 299° |
| 2026-05-08 05:55 | 47.46347 | -122.30767 | 410 ft | 9 kts | 203° |
| 2026-05-08 05:55 | 47.46306 | -122.30776 | 413 ft | 2 kts | 181° |
| 2026-05-08 05:56 | 47.46259 | -122.30776 | 417 ft | 35 kts | 180° |
| 2026-05-08 05:56 | 47.45643 | -122.30782 | 434 ft | 140 kts | 180° |
| 2026-05-08 05:56 | 47.44462 | -122.30786 | 825 ft | 193 kts | 178° |
| 2026-05-08 05:56 | 47.43212 | -122.30112 | 2006 ft | 200 kts | 137° |
| 2026-05-08 05:57 | 47.42485 | -122.28300 | 2686 ft | 222 kts | 107° |
| 2026-05-08 05:57 | 47.42435 | -122.25977 | 3516 ft | 240 kts | 72° |
| 2026-05-08 05:57 | 47.43067 | -122.23701 | 4603 ft | 252 kts | 68° |
| 2026-05-08 05:57 | 47.43395 | -122.21101 | 5656 ft | 268 kts | 86° |
| 2026-05-08 05:58 | 47.43401 | -122.18359 | 6840 ft | 275 kts | 89° |
| 2026-05-08 05:58 | 47.43392 | -122.15554 | 7991 ft | 282 kts | 88° |
| 2026-05-08 05:58 | 47.43380 | -122.12674 | 9130 ft | 288 kts | 88° |
| 2026-05-08 05:58 | 47.43357 | -122.09686 | 10246 ft | 294 kts | 88° |
| 2026-05-08 05:59 | 47.43333 | -122.06570 | 10837 ft | 318 kts | 88° |
| 2026-05-08 05:59 | 47.43303 | -122.03271 | 11709 ft | 330 kts | 88° |
| 2026-05-08 05:59 | 47.43269 | -121.99882 | 12675 ft | 338 kts | 88° |
| 2026-05-08 05:59 | 47.43234 | -121.96377 | 13648 ft | 344 kts | 88° |
| 2026-05-08 06:00 | 47.43197 | -121.92859 | 14596 ft | 350 kts | 88° |
| 2026-05-08 06:00 | 47.43158 | -121.89242 | 15526 ft | 356 kts | 88° |
| 2026-05-08 06:00 | 47.43117 | -121.85572 | 16421 ft | 362 kts | 88° |
| 2026-05-08 06:00 | 47.43075 | -121.81867 | 17281 ft | 367 kts | 88° |
| 2026-05-08 06:01 | 47.43030 | -121.78110 | 18112 ft | 372 kts | 88° |
| 2026-05-08 06:01 | 47.42984 | -121.74264 | 18920 ft | 378 kts | 88° |
| 2026-05-08 06:01 | 47.42934 | -121.70366 | 19702 ft | 383 kts | 88° |
| 2026-05-08 06:01 | 47.42876 | -121.66400 | 20455 ft | 388 kts | 88° |
| 2026-05-08 06:02 | 47.42814 | -121.62457 | 21174 ft | 393 kts | 88° |
| 2026-05-08 06:02 | 47.42750 | -121.58375 | 21884 ft | 398 kts | 88° |
| 2026-05-08 06:02 | 47.42621 | -121.54315 | 22550 ft | 404 kts | 92° |
| 2026-05-08 06:02 | 47.42224 | -121.50177 | 23202 ft | 410 kts | 99° |
| 2026-05-08 06:03 | 47.41547 | -121.46082 | 23840 ft | 415 kts | 102° |
| 2026-05-08 06:03 | 47.40818 | -121.41967 | 24433 ft | 420 kts | 102° |
| 2026-05-08 06:03 | 47.40094 | -121.37739 | 25022 ft | 425 kts | 102° |
| 2026-05-08 06:03 | 47.39370 | -121.33526 | 25574 ft | 429 kts | 103° |
| 2026-05-08 06:04 | 47.38620 | -121.29239 | 26110 ft | 434 kts | 103° |
| 2026-05-08 06:04 | 47.37854 | -121.24912 | 26630 ft | 438 kts | 103° |
| 2026-05-08 06:04 | 47.37089 | -121.20611 | 27132 ft | 442 kts | 103° |
| 2026-05-08 06:04 | 47.36299 | -121.16183 | 27633 ft | 446 kts | 103° |
| 2026-05-08 06:05 | 47.35509 | -121.11785 | 28116 ft | 449 kts | 103° |
| 2026-05-08 06:05 | 47.34705 | -121.07319 | 28595 ft | 453 kts | 103° |
| 2026-05-08 06:05 | 47.33895 | -121.02837 | 29039 ft | 456 kts | 103° |
| 2026-05-08 06:05 | 47.33068 | -120.98276 | 29546 ft | 458 kts | 103° |
| 2026-05-08 06:06 | 47.32254 | -120.93801 | 30180 ft | 456 kts | 103° |
| 2026-05-08 06:06 | 47.31428 | -120.89280 | 30750 ft | 455 kts | 104° |
| 2026-05-08 06:06 | 47.30619 | -120.84853 | 31318 ft | 454 kts | 104° |
| 2026-05-08 06:06 | 47.29791 | -120.80333 | 31853 ft | 454 kts | 104° |
| 2026-05-08 06:07 | 47.28973 | -120.75885 | 32372 ft | 454 kts | 104° |
| 2026-05-08 06:07 | 47.28148 | -120.71407 | 32899 ft | 453 kts | 104° |
| 2026-05-08 06:07 | 47.27322 | -120.66938 | 33404 ft | 453 kts | 104° |
| 2026-05-08 06:07 | 47.26501 | -120.62506 | 33861 ft | 454 kts | 104° |
| 2026-05-08 06:08 | 47.25673 | -120.58048 | 34414 ft | 452 kts | 104° |
| 2026-05-08 06:08 | 47.25120 | -120.55076 | 34754 ft | 451 kts | 104° |
| 2026-05-08 06:08 | 47.23942 | -120.49174 | 34904 ft | 457 kts | 107° |
| 2026-05-08 06:09 | 47.21892 | -120.40325 | 34900 ft | 453 kts | 108° |
| 2026-05-08 06:09 | 47.19912 | -120.31621 | 34888 ft | 450 kts | 108° |
| 2026-05-08 06:10 | 47.17930 | -120.22909 | 34877 ft | 451 kts | 108° |
| 2026-05-08 06:10 | 47.15941 | -120.14213 | 34878 ft | 452 kts | 108° |
| 2026-05-08 06:11 | 47.13944 | -120.05499 | 34876 ft | 452 kts | 108° |
| 2026-05-08 06:11 | 47.11940 | -119.96781 | 34871 ft | 452 kts | 108° |
| 2026-05-08 06:12 | 47.09920 | -119.88029 | 34867 ft | 452 kts | 108° |
| 2026-05-08 06:12 | 47.07906 | -119.79333 | 34864 ft | 451 kts | 108° |
| 2026-05-08 06:13 | 47.05886 | -119.70650 | 34862 ft | 451 kts | 108° |
| 2026-05-08 06:13 | 47.03858 | -119.61964 | 34879 ft | 451 kts | 108° |
| 2026-05-08 06:14 | 47.01832 | -119.53319 | 34963 ft | 451 kts | 108° |
| 2026-05-08 06:14 | 46.99783 | -119.44614 | 34963 ft | 450 kts | 108° |
| 2026-05-08 06:15 | 46.97746 | -119.35993 | 34963 ft | 448 kts | 108° |
| 2026-05-08 06:15 | 46.95707 | -119.27394 | 34963 ft | 448 kts | 109° |
| 2026-05-08 06:16 | 46.93658 | -119.18791 | 34963 ft | 448 kts | 109° |
| 2026-05-08 06:16 | 46.64571 | -118.00170 | 34951 ft | 445 kts | 108° |
| 2026-05-08 06:16 | 46.47448 | -117.32877 | 35093 ft | 445 kts | 109° |
| 2026-05-08 06:17 | 46.11914 | -116.00142 | 35116 ft | 435 kts | 109° |
| 2026-05-08 06:17 | 45.76119 | -114.71973 | 34953 ft | 437 kts | 108° |
| 2026-05-08 06:18 | 45.56933 | -114.06737 | 35201 ft | 444 kts | 110° |
| 2026-05-08 06:18 | 45.37264 | -113.43201 | 34951 ft | 447 kts | 109° |
| 2026-05-08 06:18 | 44.97181 | -112.12991 | 35235 ft | 451 kts | 114° |
| 2026-05-08 06:19 | 44.80520 | -111.65647 | 35159 ft | 440 kts | 111° |
| 2026-05-08 06:19 | 44.79022 | -111.61843 | 35005 ft | 441 kts | 122° |
| 2026-05-08 06:19 | 44.75219 | -111.55117 | 35049 ft | 445 kts | 125° |
| 2026-05-08 06:20 | 44.71526 | -111.48155 | 35091 ft | 447 kts | 123° |
| 2026-05-08 06:20 | 44.37442 | -110.82671 | 35084 ft | 448 kts | 122° |
| 2026-05-08 06:21 | 44.25045 | -110.58295 | 35072 ft | 452 kts | 122° |
| 2026-05-08 06:21 | 44.23318 | -110.54665 | 34538 ft | 445 kts | 117° |
| 2026-05-08 06:21 | 44.21811 | -110.50971 | 33885 ft | 443 kts | 115° |
| 2026-05-08 06:22 | 44.20329 | -110.47234 | 33200 ft | 443 kts | 115° |
| 2026-05-08 06:22 | 44.18811 | -110.43516 | 32500 ft | 443 kts | 116° |
| 2026-05-08 06:22 | 44.17266 | -110.39793 | 31789 ft | 447 kts | 116° |
| 2026-05-08 06:22 | 44.15713 | -110.36053 | 31078 ft | 449 kts | 116° |
| 2026-05-08 06:23 | 44.14140 | -110.32378 | 30531 ft | 443 kts | 121° |
| 2026-05-08 06:23 | 44.12255 | -110.28996 | 29967 ft | 440 kts | 132° |
| 2026-05-08 06:23 | 44.09988 | -110.26259 | 29409 ft | 435 kts | 146° |
| 2026-05-08 06:23 | 44.07368 | -110.24257 | 28854 ft | 428 kts | 158° |
| 2026-05-08 06:24 | 44.04597 | -110.22847 | 28299 ft | 424 kts | 167° |
| 2026-05-08 06:24 | 44.01692 | -110.22227 | 27745 ft | 420 kts | 183° |
| 2026-05-08 06:24 | 43.98865 | -110.22537 | 27211 ft | 409 kts | 192° |
| 2026-05-08 06:24 | 43.96113 | -110.23266 | 26674 ft | 400 kts | 199° |
| 2026-05-08 06:25 | 43.93570 | -110.24635 | 26153 ft | 386 kts | 214° |
| 2026-05-08 06:25 | 43.91287 | -110.26544 | 25651 ft | 380 kts | 217° |
| 2026-05-08 06:25 | 43.89040 | -110.28467 | 25142 ft | 383 kts | 216° |
| 2026-05-08 06:25 | 43.86767 | -110.30328 | 24632 ft | 377 kts | 216° |
| 2026-05-08 06:26 | 43.84604 | -110.32217 | 24042 ft | 371 kts | 220° |
| 2026-05-08 06:26 | 43.82632 | -110.34486 | 23354 ft | 363 kts | 231° |
| 2026-05-08 06:26 | 43.81210 | -110.37238 | 22712 ft | 350 kts | 251° |
| 2026-05-08 06:26 | 43.80751 | -110.40419 | 22078 ft | 336 kts | 276° |
| 2026-05-08 06:27 | 43.81379 | -110.43462 | 21466 ft | 324 kts | 302° |
| 2026-05-08 06:27 | 43.82645 | -110.45942 | 21318 ft | 307 kts | 307° |
| 2026-05-08 06:27 | 43.83779 | -110.48386 | 20880 ft | 303 kts | 299° |
| 2026-05-08 06:27 | 43.84667 | -110.50964 | 20749 ft | 287 kts | 298° |
| 2026-05-08 06:28 | 43.85540 | -110.53347 | 20565 ft | 276 kts | 293° |
| 2026-05-08 06:28 | 43.85919 | -110.55898 | 20428 ft | 268 kts | 273° |
| 2026-05-08 06:28 | 43.85479 | -110.58408 | 20040 ft | 271 kts | 248° |
| 2026-05-08 06:28 | 43.84539 | -110.60633 | 19547 ft | 268 kts | 242° |
| 2026-05-08 06:29 | 43.83317 | -110.62564 | 18894 ft | 277 kts | 221° |
| 2026-05-08 06:29 | 43.81540 | -110.63676 | 18247 ft | 285 kts | 200° |
| 2026-05-08 06:29 | 43.79667 | -110.64423 | 17592 ft | 279 kts | 205° |
| 2026-05-08 06:29 | 43.77899 | -110.65353 | 17074 ft | 268 kts | 206° |
| 2026-05-08 06:30 | 43.76194 | -110.66227 | 16689 ft | 256 kts | 204° |
| 2026-05-08 06:30 | 43.74567 | -110.67011 | 16310 ft | 236 kts | 205° |
| 2026-05-08 06:30 | 43.73107 | -110.67735 | 15931 ft | 216 kts | 204° |
| 2026-05-08 06:30 | 43.71749 | -110.68397 | 15567 ft | 200 kts | 205° |
| 2026-05-08 06:31 | 43.70470 | -110.69025 | 15182 ft | 191 kts | 205° |
| 2026-05-08 06:31 | 43.69289 | -110.69601 | 14830 ft | 172 kts | 206° |
| 2026-05-08 06:31 | 43.68218 | -110.70126 | 14430 ft | 154 kts | 206° |
| 2026-05-08 06:31 | 43.67240 | -110.70605 | 14042 ft | 149 kts | 206° |
| 2026-05-08 06:32 | 43.66279 | -110.71074 | 13687 ft | 149 kts | 206° |
| 2026-05-08 06:32 | 43.65304 | -110.71550 | 13310 ft | 148 kts | 206° |
| 2026-05-08 06:32 | 43.64354 | -110.72014 | 12939 ft | 147 kts | 206° |
| 2026-05-08 06:32 | 43.63399 | -110.72480 | 12563 ft | 145 kts | 206° |
| 2026-05-08 06:33 | 43.62454 | -110.72941 | 12189 ft | 144 kts | 205° |
| 2026-05-08 06:33 | 43.61516 | -110.73399 | 11814 ft | 144 kts | 205° |
| 2026-05-08 06:33 | 43.60575 | -110.73857 | 11451 ft | 144 kts | 205° |
| 2026-05-08 06:33 | 43.59690 | -110.74290 | 11104 ft | 146 kts | 204° |